Time;durP1;ratioP1;P1;durP2;ratioP2;P2;SDS_P1;SDS_P2;PMS_P1;PMS_P2;Temp;Humidity;BMP_temperature;BMP_pressure;BME280_temperature;BME280_humidity;BME280_pressure;Samples;Min_cycle;Max_cycle;Signal;HPM_P1;HPM_P2
2023/05/03 00:02:13;;;;;;;;;;;;;;;15.77;81.95;100726.38;5325482;32;34730;-81
2023/05/03 00:05:14;;;;;;;;;;;;;;;16.89;77.27;100714.69;5312759;32;34788;-62
2023/05/03 00:08:16;;;;;;;;;;;;;;;16.05;80.40;100717.78;5333678;32;37703;-60
2023/05/03 00:11:18;;;;;;;;;;;;;;;16.41;78.99;100712.13;5324736;32;34528;-81
2023/05/03 00:14:20;;;;;;;;;;;;;;;16.78;76.67;100710.00;5335658;32;37727;-60
2023/05/03 00:17:22;;;;;;;;;;;;;;;16.74;76.46;100706.69;5311242;32;34413;-82
2023/05/03 00:20:25;;;;;;;;;;;;;;;16.18;80.29;100704.66;5335432;32;35384;-81
2023/05/03 00:23:27;;;;;;;;;;;;;;;15.75;82.95;100701.78;5307834;32;36066;-60
2023/05/03 00:26:29;;;;;;;;;;;;;;;16.61;79.04;100696.84;5310612;32;35835;-60
2023/05/03 00:29:31;;;;;;;;;;;;;;;16.20;79.42;100702.78;5336433;32;34773;-60
2023/05/03 00:32:33;;;;;;;;;;;;;;;15.76;82.84;100702.63;5310862;32;35045;-60
2023/05/03 00:35:35;;;;;;;;;;;;;;;15.86;82.41;100693.25;5336480;32;35327;-61
2023/05/03 00:38:37;;;;;;;;;;;;;;;15.93;81.64;100690.16;5324474;32;35657;-60
2023/05/03 00:41:40;;;;;;;;;;;;;;;16.21;79.79;100700.03;5335634;32;34808;-81
2023/05/03 00:44:42;;;;;;;;;;;;;;;16.67;78.32;100707.94;5312932;32;35705;-81
2023/05/03 00:47:44;;;;;;;;;;;;;;;15.82;79.79;100713.75;5325636;32;34211;-81
2023/05/03 00:50:46;;;;;;;;;;;;;;;15.49;85.96;100711.13;5333343;32;34453;-82
2023/05/03 00:53:48;;;;;;;;;;;;;;;16.16;81.71;100704.72;5320814;32;44508;-83
2023/05/03 00:56:50;;;;;;;;;;;;;;;16.54;78.88;100696.34;5335573;32;36121;-83
2023/05/03 00:59:53;;;;;;;;;;;;;;;15.12;85.73;100717.53;5326130;32;34695;-61
2023/05/03 01:02:55;;;;;;;;;;;;;;;15.76;82.70;100718.53;5320674;32;35099;-61
2023/05/03 01:06:01;;;;;;;;;;;;;;;15.92;82.49;100720.25;5312251;32;35559;-83
2023/05/03 01:09:09;;;;;;;;;;;;;;;16.08;82.59;100725.53;5324463;32;34936;-82
2023/05/03 01:12:11;;;;;;;;;;;;;;;15.04;85.72;100736.47;5335632;32;35799;-83
2023/05/03 01:15:19;;;;;;;;;;;;;;;16.35;81.33;100724.91;5327671;32;35798;-61
2023/05/03 01:18:23;;;;;;;;;;;;;;;15.96;81.93;100734.19;5324112;32;44838;-61
2023/05/03 01:21:25;;;;;;;;;;;;;;;16.41;80.66;100727.19;5315800;32;35071;-70
2023/05/03 01:24:27;;;;;;;;;;;;;;;16.72;78.47;100731.59;5305357;32;34592;-82
2023/05/03 01:27:29;;;;;;;;;;;;;;;16.20;78.81;100724.84;5313995;32;35534;-83
2023/05/03 01:30:30;;;;;;;;;;;;;;;16.20;81.46;100737.25;5313478;32;33344;-62
2023/05/03 01:33:35;;;;;;;;;;;;;;;16.45;79.39;100728.75;5324082;32;34780;-70
2023/05/03 01:36:37;;;;;;;;;;;;;;;15.25;84.78;100741.56;5314745;32;34615;-83
2023/05/03 01:39:47;;;;;;;;;;;;;;;16.50;80.63;100732.84;5338022;32;35609;-81
2023/05/03 01:42:49;;;;;;;;;;;;;;;16.45;80.58;100734.91;5314353;32;44638;-61
2023/05/03 01:45:51;;;;;;;;;;;;;;;16.83;76.63;100718.56;5316443;32;35328;-61
2023/05/03 01:48:53;;;;;;;;;;;;;;;15.69;83.04;100740.06;5333947;32;35766;-61
2023/05/03 01:51:55;;;;;;;;;;;;;;;16.63;80.87;100734.78;5323499;32;35584;-61
2023/05/03 01:54:58;;;;;;;;;;;;;;;16.09;83.09;100740.50;5335908;32;34454;-82
2023/05/03 01:58:00;;;;;;;;;;;;;;;16.61;78.50;100728.69;5325716;32;34356;-61
2023/05/03 02:01:04;;;;;;;;;;;;;;;16.28;78.59;100729.69;5325194;32;35037;-83
2023/05/03 02:04:06;;;;;;;;;;;;;;;16.61;77.80;100726.03;5328066;32;34531;-61
2023/05/03 02:07:08;;;;;;;;;;;;;;;15.84;82.11;100734.84;5327472;32;34629;-82
2023/05/03 02:10:13;;;;;;;;;;;;;;;16.15;82.88;100726.03;5322094;32;35004;-82
2023/05/03 02:13:15;;;;;;;;;;;;;;;16.18;80.96;100716.13;5326956;32;34905;-59
2023/05/03 02:16:19;;;;;;;;;;;;;;;16.23;80.62;100711.44;5326142;32;45001;-83
2023/05/03 02:19:21;;;;;;;;;;;;;;;16.06;81.30;100715.97;5313393;32;34614;-62
2023/05/03 02:22:24;;;;;;;;;;;;;;;15.80;82.69;100710.34;5336021;32;35125;-81
2023/05/03 02:25:26;;;;;;;;;;;;;;;15.53;83.02;100711.81;5294943;32;34536;-60
2023/05/03 02:28:28;;;;;;;;;;;;;;;16.01;82.53;100716.22;5325354;32;35197;-69
2023/05/03 02:31:30;;;;;;;;;;;;;;;16.41;79.58;100708.63;5335885;32;34864;-82
2023/05/03 02:34:32;;;;;;;;;;;;;;;16.31;79.41;100708.31;5313552;32;35717;-61
2023/05/03 02:37:34;;;;;;;;;;;;;;;15.86;81.72;100714.44;5323488;32;35892;-62
2023/05/03 02:40:36;;;;;;;;;;;;;;;16.07;82.48;100707.91;5327024;32;34618;-82
2023/05/03 02:43:38;;;;;;;;;;;;;;;16.04;81.56;100708.13;5336372;32;35148;-82
2023/05/03 02:46:40;;;;;;;;;;;;;;;15.89;82.11;100709.81;5315287;32;35163;-82
2023/05/03 02:49:47;;;;;;;;;;;;;;;16.09;81.34;100706.03;5326404;32;34766;-61
2023/05/03 02:52:48;;;;;;;;;;;;;;;16.37;80.49;100699.16;5332781;32;45664;-62
2023/05/03 02:55:50;;;;;;;;;;;;;;;16.42;79.33;100691.75;5326014;32;35210;-81
2023/05/03 02:58:52;;;;;;;;;;;;;;;16.07;80.80;100696.47;5323072;32;34750;-81
2023/05/03 03:01:54;;;;;;;;;;;;;;;15.53;83.91;100693.28;5327846;32;35019;-62
2023/05/03 03:04:56;;;;;;;;;;;;;;;16.16;80.81;100686.16;5334169;32;34787;-60
2023/05/03 03:07:58;;;;;;;;;;;;;;;16.64;78.41;100689.56;5328338;32;34846;-82
2023/05/03 03:11:00;;;;;;;;;;;;;;;16.08;80.15;100690.22;5325733;32;35676;-60
2023/05/03 03:14:02;;;;;;;;;;;;;;;16.00;81.96;100692.47;5322762;32;35392;-70
2023/05/03 03:17:06;;;;;;;;;;;;;;;15.91;84.18;100685.88;5326953;32;34625;-82
2023/05/03 03:20:11;;;;;;;;;;;;;;;15.91;84.45;100699.16;5323909;32;34599;-82
2023/05/03 03:23:13;;;;;;;;;;;;;;;16.27;81.63;100690.87;5313189;32;36179;-81
2023/05/03 03:26:15;;;;;;;;;;;;;;;16.47;80.27;100693.22;5314021;32;35337;-61
2023/05/03 03:29:17;;;;;;;;;;;;;;;16.13;80.89;100685.50;5330463;32;44533;-82
2023/05/03 03:32:20;;;;;;;;;;;;;;;17.14;76.93;100691.00;5316083;32;34411;-61
2023/05/03 03:35:22;;;;;;;;;;;;;;;16.88;77.36;100697.06;5326384;32;34373;-82
2023/05/03 03:38:24;;;;;;;;;;;;;;;17.04;76.47;100703.12;5327032;32;34937;-61
2023/05/03 03:41:26;;;;;;;;;;;;;;;16.27;77.77;100698.81;5323939;32;34956;-82
2023/05/03 03:44:28;;;;;;;;;;;;;;;16.28;80.26;100704.97;5313530;32;34398;-61
2023/05/03 03:47:29;;;;;;;;;;;;;;;15.33;88.00;100712.91;5331095;32;35030;-81
2023/05/03 03:50:32;;;;;;;;;;;;;;;15.23;87.73;100709.03;5329570;32;34981;-61
2023/05/03 03:53:34;;;;;;;;;;;;;;;15.56;85.25;100711.66;5309440;32;35524;-61
2023/05/03 03:56:36;;;;;;;;;;;;;;;16.21;82.48;100710.63;5322609;32;34611;-61
2023/05/03 03:59:38;;;;;;;;;;;;;;;16.84;78.32;100712.31;5313183;32;34998;-82
2023/05/03 04:02:40;;;;;;;;;;;;;;;16.16;82.05;100715.34;5336892;32;35507;-81
2023/05/03 04:05:42;;;;;;;;;;;;;;;16.43;80.27;100710.28;5313209;32;35784;-61
2023/05/03 04:08:44;;;;;;;;;;;;;;;16.55;79.04;100721.09;5316209;32;35368;-61
2023/05/03 04:11:46;;;;;;;;;;;;;;;15.92;81.76;100722.91;5319073;32;37232;-82
2023/05/03 04:14:48;;;;;;;;;;;;;;;16.14;81.04;100727.00;5324849;32;35195;-62
2023/05/03 04:17:50;;;;;;;;;;;;;;;16.55;78.46;100714.00;5335657;32;35655;-63
2023/05/03 04:20:52;;;;;;;;;;;;;;;16.76;78.31;100720.72;5325873;32;35314;-83
2023/05/03 04:23:54;;;;;;;;;;;;;;;16.72;77.65;100727.16;5311236;32;34541;-83
2023/05/03 04:26:57;;;;;;;;;;;;;;;15.59;83.28;100727.38;5318044;32;34547;-83
2023/05/03 04:29:59;;;;;;;;;;;;;;;15.73;82.48;100734.63;5329548;32;35200;-62
2023/05/03 04:33:03;;;;;;;;;;;;;;;15.82;81.86;100729.66;5318375;32;35499;-61
2023/05/03 04:36:06;;;;;;;;;;;;;;;16.44;81.16;100732.34;5311892;32;35632;-82
2023/05/03 04:39:10;;;;;;;;;;;;;;;15.56;82.48;100727.53;5322544;32;35897;-82
2023/05/03 04:42:14;;;;;;;;;;;;;;;16.58;79.01;100728.87;5313110;32;34725;-82
2023/05/03 04:45:17;;;;;;;;;;;;;;;16.88;76.78;100736.88;5334866;32;35574;-82
2023/05/03 04:48:19;;;;;;;;;;;;;;;16.05;79.63;100744.28;5324330;32;44845;-61
2023/05/03 04:51:22;;;;;;;;;;;;;;;16.40;80.71;100738.75;5325628;32;35098;-61
2023/05/03 04:54:24;;;;;;;;;;;;;;;16.57;77.85;100733.34;5319690;32;35203;-82
2023/05/03 04:57:26;;;;;;;;;;;;;;;16.91;75.45;100742.84;5323981;32;35144;-61
2023/05/03 05:00:28;;;;;;;;;;;;;;;15.95;78.85;100756.31;5321871;32;35314;-61
2023/05/03 05:03:33;;;;;;;;;;;;;;;16.01;79.14;100761.28;5310301;32;36025;-60
2023/05/03 05:06:35;;;;;;;;;;;;;;;16.19;79.56;100754.97;5334761;32;35033;-82
2023/05/03 05:09:37;;;;;;;;;;;;;;;16.61;77.42;100750.78;5311984;32;35066;-62
2023/05/03 05:12:39;;;;;;;;;;;;;;;17.06;74.52;100754.34;5311311;32;34193;-82
2023/05/03 05:15:41;;;;;;;;;;;;;;;16.24;78.57;100767.97;5334293;32;37372;-62
2023/05/03 05:18:43;;;;;;;;;;;;;;;16.97;75.01;100746.94;5321624;32;34369;-71
2023/05/03 05:21:45;;;;;;;;;;;;;;;16.04;78.63;100763.78;5335033;32;34765;-87
2023/05/03 05:24:46;;;;;;;;;;;;;;;16.62;77.69;100757.81;5293955;32;44022;-78
2023/05/03 05:27:48;;;;;;;;;;;;;;;15.98;79.11;100764.97;5327983;32;34870;-72
2023/05/03 05:30:50;;;;;;;;;;;;;;;16.58;77.25;100755.41;5318798;32;35399;-77
2023/05/03 05:33:52;;;;;;;;;;;;;;;16.73;74.09;100759.84;5321447;32;34496;-60
2023/05/03 05:36:54;;;;;;;;;;;;;;;17.48;72.78;100750.00;5330580;32;34264;-61
2023/05/03 05:39:56;;;;;;;;;;;;;;;17.23;71.65;100753.31;5284630;32;848828;-60
2023/05/03 05:42:58;;;;;;;;;;;;;;;18.29;68.07;100761.69;5332467;32;37091;-61
2023/05/03 05:46:00;;;;;;;;;;;;;;;18.01;68.78;100762.59;5319624;32;35568;-73
2023/05/03 05:49:02;;;;;;;;;;;;;;;17.50;68.79;100762.25;5309780;32;34703;-73
2023/05/03 05:52:04;;;;;;;;;;;;;;;17.74;67.93;100759.91;5306809;32;34701;-78
2023/05/03 05:55:07;;;;;;;;;;;;;;;18.39;66.76;100768.09;5318548;32;34366;-62
2023/05/03 05:58:10;;;;;;;;;;;;;;;19.12;63.37;100774.81;5330138;32;34286;-61
2023/05/03 06:01:12;;;;;;;;;;;;;;;20.08;58.73;100796.50;5312646;32;35073;-72
2023/05/03 06:04:14;;;;;;;;;;;;;;;19.43;60.52;100801.03;5335155;32;34304;-62
2023/05/03 06:07:17;;;;;;;;;;;;;;;18.92;59.91;100789.47;5321449;32;46248;-61
2023/05/03 06:10:19;;;;;;;;;;;;;;;19.06;60.59;100799.19;5334212;32;34278;-61
2023/05/03 06:13:21;;;;;;;;;;;;;;;18.55;62.12;100794.59;5326197;32;34419;-84
2023/05/03 06:16:25;;;;;;;;;;;;;;;18.05;64.21;100817.31;5316413;32;34326;-66
2023/05/03 06:19:27;;;;;;;;;;;;;;;17.71;65.59;100812.34;5333663;32;34433;-73
2023/05/03 06:22:29;;;;;;;;;;;;;;;19.06;62.56;100809.84;5326285;32;34601;-63
2023/05/03 06:25:31;;;;;;;;;;;;;;;18.20;64.02;100812.81;5319027;32;34102;-62
2023/05/03 06:28:34;;;;;;;;;;;;;;;18.53;63.47;100816.91;5328626;32;36440;-82
2023/05/03 06:31:36;;;;;;;;;;;;;;;18.80;62.36;100815.12;5317462;32;34587;-74
2023/05/03 06:34:38;;;;;;;;;;;;;;;19.43;60.13;100819.69;5327830;32;34391;-63
2023/05/03 06:37:42;;;;;;;;;;;;;;;19.41;59.79;100826.97;5327043;32;35576;-64
2023/05/03 06:40:50;;;;;;;;;;;;;;;19.82;59.49;100831.25;5335129;32;44594;-61
2023/05/03 06:43:52;;;;;;;;;;;;;;;19.83;59.60;100832.94;5319334;32;34514;-76
2023/05/03 06:46:54;;;;;;;;;;;;;;;19.82;59.29;100836.56;5336333;32;35604;-62
2023/05/03 06:49:56;;;;;;;;;;;;;;;19.99;58.34;100827.37;5327059;32;34824;-83
2023/05/03 06:53:01;;;;;;;;;;;;;;;20.70;55.08;100834.66;5319923;32;36199;-78
2023/05/03 06:56:04;;;;;;;;;;;;;;;20.65;55.12;100831.47;5312236;32;35494;-64
2023/05/03 06:59:07;;;;;;;;;;;;;;;20.08;57.13;100834.72;5314475;32;35589;-66
2023/05/03 07:02:09;;;;;;;;;;;;;;;19.98;57.50;100839.03;5332182;32;34567;-64
2023/05/03 07:05:11;;;;;;;;;;;;;;;20.22;57.56;100831.06;5323516;32;34542;-65
2023/05/03 07:08:13;;;;;;;;;;;;;;;20.82;56.16;100824.88;5323821;32;35487;-69
2023/05/03 07:11:15;;;;;;;;;;;;;;;23.07;49.36;100817.69;5316667;32;34312;-68
2023/05/03 07:14:18;;;;;;;;;;;;;;;24.05;45.10;100821.62;5323478;32;44604;-71
2023/05/03 07:17:22;;;;;;;;;;;;;;;22.74;48.06;100821.34;5336074;32;34377;-68
2023/05/03 07:20:25;;;;;;;;;;;;;;;24.86;44.04;100805.41;5333285;32;35700;-66
2023/05/03 07:23:27;;;;;;;;;;;;;;;24.99;42.66;100808.66;5328254;32;34273;-74
2023/05/03 07:26:29;;;;;;;;;;;;;;;25.34;41.99;100807.22;5324464;32;36527;-71
2023/05/03 07:29:31;;;;;;;;;;;;;;;26.78;38.20;100807.50;5326224;32;34336;-67
2023/05/03 07:32:33;;;;;;;;;;;;;;;27.84;35.22;100807.47;5329101;32;34768;-67
2023/05/03 07:35:35;;;;;;;;;;;;;;;25.93;39.09;100811.41;5314300;32;35545;-79
2023/05/03 07:38:37;;;;;;;;;;;;;;;24.81;41.21;100819.25;5318759;32;35530;-65
2023/05/03 07:41:39;;;;;;;;;;;;;;;23.26;44.06;100820.53;5307164;32;35525;-79
2023/05/03 07:44:44;;;;;;;;;;;;;;;24.42;41.65;100817.53;5310826;32;35472;-76
2023/05/03 07:47:46;;;;;;;;;;;;;;;21.72;49.24;100822.47;5329348;32;44664;-85
2023/05/03 07:50:48;;;;;;;;;;;;;;;23.63;44.39;100826.25;5327231;32;34404;-74
2023/05/03 07:53:50;;;;;;;;;;;;;;;22.24;47.33;100831.72;5358824;32;34156;-74
2023/05/03 07:56:52;;;;;;;;;;;;;;;22.29;47.95;100829.50;5311936;32;34106;-75
2023/05/03 07:59:56;;;;;;;;;;;;;;;21.66;48.52;100833.63;5323240;32;32532;-64
2023/05/03 08:02:58;;;;;;;;;;;;;;;21.12;50.90;100840.41;5304476;32;33176;-66
2023/05/03 08:06:01;;;;;;;;;;;;;;;22.72;46.53;100837.53;5318420;32;34222;-69
2023/05/03 08:09:03;;;;;;;;;;;;;;;23.05;45.35;100828.53;5281019;32;35249;-64
2023/05/03 08:12:06;;;;;;;;;;;;;;;22.87;45.38;100841.66;5315959;32;36818;-66
2023/05/03 08:15:08;;;;;;;;;;;;;;;22.71;46.34;100836.69;5311919;32;35225;-68
2023/05/03 08:18:10;;;;;;;;;;;;;;;22.51;47.20;100837.47;5304804;32;34560;-64
2023/05/03 08:21:13;;;;;;;;;;;;;;;24.04;43.04;100841.44;5331910;32;36188;-69
2023/05/03 08:24:15;;;;;;;;;;;;;;;24.30;42.38;100833.72;5315530;32;36742;-72
2023/05/03 08:27:18;;;;;;;;;;;;;;;23.99;42.71;100840.13;5326573;32;44848;-67
2023/05/03 08:30:20;;;;;;;;;;;;;;;23.38;44.49;100837.37;5328854;32;35415;-85
2023/05/03 08:33:23;;;;;;;;;;;;;;;24.18;43.66;100840.19;5314678;32;35623;-80
2023/05/03 08:36:25;;;;;;;;;;;;;;;23.19;45.15;100838.97;5306886;32;36373;-69
2023/05/03 08:39:29;;;;;;;;;;;;;;;22.99;46.48;100847.81;5305938;32;34325;-65
2023/05/03 08:42:32;;;;;;;;;;;;;;;24.32;43.40;100842.50;5325640;32;37218;-78
2023/05/03 08:45:34;;;;;;;;;;;;;;;24.09;44.25;100845.53;5331456;32;34759;-80
2023/05/03 08:48:36;;;;;;;;;;;;;;;23.41;45.86;100848.69;5315860;32;34604;-80
2023/05/03 08:51:39;;;;;;;;;;;;;;;24.69;43.09;100851.78;5326966;32;35646;-78
2023/05/03 08:54:41;;;;;;;;;;;;;;;24.18;44.21;100847.41;5307639;32;34275;-66
2023/05/03 08:57:46;;;;;;;;;;;;;;;23.81;45.38;100845.28;5310959;32;35382;-67
2023/05/03 09:00:47;;;;;;;;;;;;;;;24.73;42.48;100846.00;5318748;32;45615;-76
2023/05/03 09:03:50;;;;;;;;;;;;;;;24.32;43.50;100844.31;5332675;32;34257;-70
2023/05/03 09:06:58;;;;;;;;;;;;;;;23.21;46.63;100850.41;5296870;32;36124;-77
2023/05/03 09:10:00;;;;;;;;;;;;;;;22.83;46.27;100850.91;5319256;32;34120;-68
2023/05/03 09:13:02;;;;;;;;;;;;;;;23.51;45.29;100844.25;5324717;32;35222;-74
2023/05/03 09:16:04;;;;;;;;;;;;;;;24.20;42.92;100842.75;5330399;32;34918;-68
2023/05/03 09:19:08;;;;;;;;;;;;;;;23.30;45.76;100848.75;5323508;32;34559;-67
2023/05/03 09:22:13;;;;;;;;;;;;;;;24.77;42.10;100836.66;5300865;32;34926;-71
2023/05/03 09:25:15;;;;;;;;;;;;;;;23.47;44.90;100844.63;5304778;32;35940;-72
2023/05/03 09:28:17;;;;;;;;;;;;;;;23.45;44.44;100849.31;5314301;32;44619;-71
2023/05/03 09:31:19;;;;;;;;;;;;;;;22.99;45.99;100847.81;5317234;32;37084;-72
2023/05/03 09:34:21;;;;;;;;;;;;;;;24.17;42.73;100843.87;5322294;32;34338;-74
2023/05/03 09:37:34;;;;;;;;;;;;;;;22.66;45.69;100851.44;5317173;32;34798;-70
2023/05/03 09:40:37;;;;;;;;;;;;;;;24.39;42.74;100840.13;5323452;32;34864;-73
2023/05/03 09:43:49;;;;;;;;;;;;;;;24.63;40.52;100841.59;5316301;32;34687;-77
2023/05/03 09:47:01;;;;;;;;;;;;;;;24.99;40.76;100830.16;5336397;32;44403;-66
2023/05/03 09:50:03;;;;;;;;;;;;;;;24.67;41.97;100832.28;5324678;32;33810;-71
2023/05/03 09:53:06;;;;;;;;;;;;;;;24.51;41.63;100835.50;5305653;32;35837;-72
2023/05/03 09:56:11;;;;;;;;;;;;;;;25.69;39.22;100821.81;5328897;32;34346;-67
2023/05/03 09:59:13;;;;;;;;;;;;;;;25.78;39.32;100838.00;5327866;32;35527;-67
2023/05/03 10:02:15;;;;;;;;;;;;;;;24.50;42.53;100847.25;5336071;32;35422;-76
2023/05/03 10:05:18;;;;;;;;;;;;;;;23.66;44.53;100835.88;5327064;32;44817;-84
2023/05/03 10:08:20;;;;;;;;;;;;;;;23.47;44.73;100847.31;5326969;32;35099;-68
2023/05/03 10:11:23;;;;;;;;;;;;;;;21.72;49.34;100842.03;5312459;32;33619;-69
2023/05/03 10:14:25;;;;;;;;;;;;;;;22.63;47.49;100838.31;5321349;32;34413;-75
2023/05/03 10:17:30;;;;;;;;;;;;;;;23.11;45.54;100835.22;5322405;32;36464;-76
2023/05/03 10:20:49;;;;;;;;;;;;;;;22.15;48.71;100841.31;5321082;32;44689;-69
2023/05/03 10:24:24;;;;;;;;;;;;;;;22.85;46.95;100840.91;5310786;32;34435;-69
2023/05/03 10:27:50;;;;;;;;;;;;;;;22.99;46.04;100839.78;5282197;32;33862;-66
2023/05/03 10:30:52;;;;;;;;;;;;;;;22.88;46.74;100835.31;5326490;32;44684;-77
2023/05/03 10:33:54;;;;;;;;;;;;;;;24.49;42.62;100834.78;5318421;32;34893;-65
2023/05/03 10:36:56;;;;;;;;;;;;;;;22.26;47.80;100827.91;5319975;32;34329;-65
2023/05/03 10:40:05;;;;;;;;;;;;;;;22.01;48.01;100838.88;5328949;32;34253;-69
2023/05/03 10:43:09;;;;;;;;;;;;;;;21.92;48.13;100835.09;5326099;32;34327;-66
2023/05/03 10:46:29;;;;;;;;;;;;;;;22.55;46.65;100833.59;5317665;32;33991;-71
2023/05/03 10:49:31;;;;;;;;;;;;;;;22.65;45.72;100833.66;5322005;32;38046;-66
2023/05/03 10:52:39;;;;;;;;;;;;;;;21.15;48.90;100829.50;5312130;32;34361;-64
2023/05/03 10:55:51;;;;;;;;;;;;;;;21.36;48.37;100827.03;5324425;32;35774;-67
2023/05/03 10:58:57;;;;;;;;;;;;;;;21.60;48.49;100825.12;5341509;27;43890;-68
2023/05/03 11:02:00;;;;;;;;;;;;;;;21.90;47.14;100821.00;5312427;32;34388;-64
2023/05/03 11:05:03;;;;;;;;;;;;;;;22.02;47.54;100816.47;5315800;32;34945;-70
2023/05/03 11:08:10;;;;;;;;;;;;;;;22.75;45.73;100823.06;5318862;32;35403;-70
2023/05/03 11:11:12;;;;;;;;;;;;;;;22.12;46.38;100820.16;5323857;32;34886;-65
2023/05/03 11:14:14;;;;;;;;;;;;;;;22.63;45.67;100824.91;5312847;32;34317;-71
2023/05/03 11:17:16;;;;;;;;;;;;;;;22.19;46.84;100817.84;5316763;32;35334;-69
2023/05/03 11:20:18;;;;;;;;;;;;;;;21.77;47.67;100814.94;5302960;32;45120;-69
2023/05/03 11:23:24;;;;;;;;;;;;;;;22.59;45.93;100815.41;5331664;32;37070;-66
2023/05/03 11:26:26;;;;;;;;;;;;;;;22.05;46.91;100814.41;5307127;32;34367;-65
2023/05/03 11:29:28;;;;;;;;;;;;;;;22.10;47.46;100817.63;5330977;32;34347;-67
2023/05/03 11:32:31;;;;;;;;;;;;;;;22.34;46.35;100820.09;5332822;32;34016;-67
2023/05/03 11:35:33;;;;;;;;;;;;;;;22.46;46.74;100822.75;5315735;32;35757;-68
2023/05/03 11:38:36;;;;;;;;;;;;;;;21.35;49.07;100822.66;5326630;32;34829;-67
2023/05/03 11:41:38;;;;;;;;;;;;;;;21.56;49.03;100817.44;5326071;32;34347;-68
2023/05/03 11:44:40;;;;;;;;;;;;;;;22.01;47.20;100817.44;5322383;32;34305;-66
2023/05/03 11:47:42;;;;;;;;;;;;;;;22.29;47.16;100811.62;5327516;32;34754;-67
2023/05/03 11:50:50;;;;;;;;;;;;;;;21.93;47.80;100809.19;5327209;32;34116;-67
2023/05/03 11:53:52;;;;;;;;;;;;;;;21.46;48.67;100809.31;5336042;32;44535;-65
2023/05/03 11:56:55;;;;;;;;;;;;;;;22.26;46.89;100809.19;5330784;32;36208;-75
2023/05/03 12:00:08;;;;;;;;;;;;;;;21.95;47.07;100812.59;5319946;32;34417;-75
2023/05/03 12:03:20;;;;;;;;;;;;;;;21.46;48.79;100817.31;5323363;32;34375;-73
2023/05/03 12:06:26;;;;;;;;;;;;;;;21.12;49.92;100804.81;5317002;32;44628;-69
2023/05/03 12:09:28;;;;;;;;;;;;;;;21.52;48.98;100811.50;5336509;32;35794;-70
2023/05/03 12:12:30;;;;;;;;;;;;;;;21.55;48.99;100811.25;5330703;32;35565;-66
2023/05/03 12:15:38;;;;;;;;;;;;;;;21.77;47.97;100815.78;5330918;32;35267;-71
2023/05/03 12:18:44;;;;;;;;;;;;;;;22.14;47.79;100808.34;5316136;32;35330;-63
2023/05/03 12:21:48;;;;;;;;;;;;;;;21.63;48.92;100811.50;5329669;32;44676;-66
2023/05/03 12:25:10;;;;;;;;;;;;;;;21.54;48.91;100806.03;5306888;32;35338;-70
2023/05/03 12:28:16;;;;;;;;;;;;;;;22.11;47.48;100802.41;5310612;32;34071;-70
2023/05/03 12:31:22;;;;;;;;;;;;;;;22.37;47.00;100801.12;5329488;32;45986;-62
2023/05/03 12:34:24;;;;;;;;;;;;;;;21.71;48.76;100796.69;5329393;32;35489;-69
2023/05/03 12:37:29;;;;;;;;;;;;;;;21.37;49.82;100800.16;5332238;32;34607;-67
2023/05/03 12:40:34;;;;;;;;;;;;;;;21.09;50.78;100796.06;5329867;32;34493;-74
2023/05/03 12:43:36;;;;;;;;;;;;;;;21.56;49.51;100794.22;5323185;32;34427;-70
2023/05/03 12:46:39;;;;;;;;;;;;;;;21.84;47.98;100767.97;5339057;32;34189;-75
2023/05/03 12:49:45;;;;;;;;;;;;;;;21.31;49.65;100789.09;5310988;32;34086;-73
2023/05/03 12:52:48;;;;;;;;;;;;;;;21.29;49.93;100781.19;5337226;32;44067;-73
2023/05/03 12:55:53;;;;;;;;;;;;;;;21.85;48.17;100775.03;5315820;32;38428;-70
2023/05/03 12:58:59;;;;;;;;;;;;;;;22.26;47.04;100778.88;5321312;32;33909;-68
2023/05/03 13:02:04;;;;;;;;;;;;;;;22.00;48.03;100775.63;5336651;32;35749;-67
2023/05/03 13:05:26;;;;;;;;;;;;;;;20.49;51.04;100783.72;5331149;32;44745;-79
2023/05/03 13:08:37;;;;;;;;;;;;;;;19.86;53.04;100786.56;5340443;32;34350;-66
2023/05/03 13:11:41;;;;;;;;;;;;;;;20.29;51.97;100786.97;5328281;32;35817;-75
2023/05/03 13:14:43;;;;;;;;;;;;;;;20.66;51.48;100782.44;5325889;32;34425;-81
2023/05/03 13:17:45;;;;;;;;;;;;;;;21.23;51.72;100775.44;5338072;32;34448;-80
2023/05/03 13:20:50;;;;;;;;;;;;;;;21.80;52.76;100783.41;5319553;32;46322;-71
2023/05/03 13:23:52;;;;;;;;;;;;;;;21.53;54.42;100777.59;5336261;32;35476;-66
2023/05/03 13:26:54;;;;;;;;;;;;;;;22.05;52.95;100782.28;5327326;32;35805;-73
2023/05/03 13:29:57;;;;;;;;;;;;;;;21.60;54.19;100773.44;5340632;32;36550;-66
2023/05/03 13:32:58;;;;;;;;;;;;;;;21.33;54.29;100776.47;5333631;32;34221;-68
2023/05/03 13:36:01;;;;;;;;;;;;;;;21.84;53.69;100768.84;5337056;32;35336;-68
2023/05/03 13:39:05;;;;;;;;;;;;;;;22.30;52.36;100769.63;5328943;32;36035;-65
2023/05/03 13:42:07;;;;;;;;;;;;;;;20.98;56.41;100771.97;5331625;32;34380;-76
2023/05/03 13:45:09;;;;;;;;;;;;;;;21.28;56.33;100770.59;5317827;32;34116;-64
2023/05/03 13:48:11;;;;;;;;;;;;;;;21.68;54.92;100760.31;5325524;32;34259;-61
2023/05/03 13:51:20;;;;;;;;;;;;;;;19.95;59.88;100769.88;5336821;32;44845;-82
2023/05/03 13:54:22;;;;;;;;;;;;;;;21.02;57.25;100762.78;5313468;32;34047;-68
2023/05/03 13:57:24;;;;;;;;;;;;;;;21.71;54.12;100757.41;5328450;32;34889;-73
2023/05/03 14:00:26;;;;;;;;;;;;;;;21.28;53.70;100762.56;5340985;32;34954;-71
2023/05/03 14:03:31;;;;;;;;;;;;;;;20.77;55.14;100760.25;5330223;32;34325;-66
2023/05/03 14:06:33;;;;;;;;;;;;;;;20.96;53.43;100760.56;5321812;32;34751;-67
2023/05/03 14:09:40;;;;;;;;;;;;;;;21.56;50.45;100754.09;5332914;32;34294;-66
2023/05/03 14:12:43;;;;;;;;;;;;;;;21.74;49.84;100751.78;5342078;32;34378;-71
2023/05/03 14:15:45;;;;;;;;;;;;;;;21.71;49.39;100737.84;5316947;32;34722;-76
2023/05/03 14:18:48;;;;;;;;;;;;;;;20.89;51.11;100747.81;5331609;32;44789;-68
2023/05/03 14:21:50;;;;;;;;;;;;;;;22.29;47.28;100730.44;5335966;32;35446;-70
2023/05/03 14:24:52;;;;;;;;;;;;;;;21.74;49.06;100740.25;5303637;32;34244;-65
2023/05/03 14:27:54;;;;;;;;;;;;;;;21.41;49.65;100738.44;5335032;32;34473;-64
2023/05/03 14:30:56;;;;;;;;;;;;;;;20.80;50.95;100744.00;5329760;32;34298;-74
2023/05/03 14:33:59;;;;;;;;;;;;;;;20.47;52.39;100747.38;5320416;32;34118;-70
2023/05/03 14:37:01;;;;;;;;;;;;;;;21.43;50.84;100741.84;5306340;32;34861;-66
2023/05/03 14:40:04;;;;;;;;;;;;;;;20.82;51.90;100742.94;5323052;32;35187;-67
2023/05/03 14:43:07;;;;;;;;;;;;;;;20.07;53.98;100749.47;5329700;32;34322;-70
2023/05/03 14:46:09;;;;;;;;;;;;;;;20.17;53.83;100755.84;5323017;32;34379;-71
2023/05/03 14:49:13;;;;;;;;;;;;;;;19.74;54.22;100753.59;5335464;32;35081;-69
2023/05/03 14:52:15;;;;;;;;;;;;;;;19.58;54.83;100753.84;5320475;32;38831;-71
2023/05/03 14:55:17;;;;;;;;;;;;;;;20.33;53.04;100748.38;5321526;32;43507;-70
2023/05/03 14:58:19;;;;;;;;;;;;;;;20.49;53.01;100745.47;5315798;32;35206;-71
2023/05/03 15:01:21;;;;;;;;;;;;;;;20.17;53.02;100743.34;5328227;32;36140;-71
2023/05/03 15:04:24;;;;;;;;;;;;;;;20.82;51.72;100744.75;5329937;32;34716;-69
2023/05/03 15:07:26;;;;;;;;;;;;;;;20.45;52.76;100752.00;5313631;32;35091;-66
2023/05/03 15:10:28;;;;;;;;;;;;;;;21.09;51.43;100755.13;5335633;32;35286;-63
2023/05/03 15:13:30;;;;;;;;;;;;;;;20.21;54.83;100758.16;5323901;32;34770;-66
2023/05/03 15:16:32;;;;;;;;;;;;;;;20.88;53.70;100752.28;5326545;32;36773;-64
2023/05/03 15:19:37;;;;;;;;;;;;;;;20.59;54.73;100741.13;5322431;32;35331;-64
2023/05/03 15:22:39;;;;;;;;;;;;;;;20.52;54.95;100746.09;5327037;32;34917;-69
2023/05/03 15:25:41;;;;;;;;;;;;;;;21.21;53.53;100748.00;5314200;32;36220;-70
2023/05/03 15:28:44;;;;;;;;;;;;;;;20.15;56.54;100758.59;5326465;32;34930;-63
2023/05/03 15:31:46;;;;;;;;;;;;;;;20.42;56.41;100761.06;5330475;32;35198;-69
2023/05/03 15:34:48;;;;;;;;;;;;;;;20.40;56.10;100749.63;5309879;32;45076;-71
2023/05/03 15:37:50;;;;;;;;;;;;;;;20.62;55.36;100754.28;5327272;32;34878;-64
2023/05/03 15:40:52;;;;;;;;;;;;;;;20.76;55.40;100747.88;5334256;32;35410;-70